Date,TemperatureHighF,TemperatureAvgF,TemperatureLowF,DewpointHighF,DewpointAvgF,DewpointLowF,HumidityHigh,HumidityAvg,HumidityLow,PressureMaxIn,PressureMinIn,WindSpeedMaxMPH,WindSpeedAvgMPH,GustSpeedMaxMPH,PrecipitationSumIn
2013-7-1,90.2,81.3,71.0,62.0,57.4,54.0,64,45,31,29.95,29.84,9,2,13,0.00
2013-7-2,94.2,80.0,65.6,62.0,55.4,48.0,77,47,24,30.02,29.90,5,1,11,0.00
2013-7-3,96.3,83.1,67.7,62.0,52.1,47.0,62,37,20,29.98,29.84,5,1,9,0.00
2013-7-4,96.2,82.3,69.7,69.0,61.4,53.0,84,53,24,29.94,29.82,4,1,11,0.00
2013-7-5,98.4,85.8,71.3,71.0,63.5,58.0,84,51,26,29.93,29.76,9,2,13,0.00
2013-7-6,98.2,84.2,73.1,72.0,67.3,60.0,83,60,30,29.88,29.74,12,3,24,0.00
2013-7-7,100.3,84.2,74.5,73.0,71.1,67.0,89,67,34,29.91,29.79,9,3,18,0.03
2013-7-8,88.9,80.3,75.5,77.0,72.3,64.0,91,78,46,30.05,29.91,8,4,14,0.08
2013-7-9,98.9,85.5,74.7,74.0,71.4,67.0,92,66,37,30.09,29.92,15,4,18,0.00
2013-7-10,99.7,86.4,74.9,74.0,70.8,66.0,91,63,35,30.03,29.84,12,3,16,0.00
2013-7-11,99.5,86.3,75.3,75.0,68.8,61.0,87,60,30,29.94,29.80,8,3,13,0.00
2013-7-12,100.9,86.7,75.0,73.0,68.0,62.0,83,57,29,29.90,29.79,9,2,15,0.00
2013-7-13,104.5,90.6,77.1,70.0,65.1,59.0,74,46,23,29.91,29.75,4,1,10,0.00
2013-7-14,94.4,83.6,75.5,70.0,66.8,62.0,80,58,42,29.85,29.79,8,2,14,0.00
2013-7-15,76.3,72.0,69.7,74.0,70.0,67.0,96,93,82,29.98,29.84,5,0,8,0.68
2013-7-16,91.4,78.2,70.4,76.0,70.9,67.0,97,80,51,30.08,29.96,7,1,13,0.00
2013-7-17,90.2,75.8,71.5,77.0,71.8,70.0,97,88,56,30.13,30.03,9,1,19,1.38
2013-7-18,94.8,79.8,71.6,76.0,71.1,68.0,98,78,43,30.12,29.94,15,1,21,0.01
2013-7-19,96.0,82.4,71.5,73.0,69.8,66.0,95,69,37,30.02,29.84,8,1,11,0.00
2013-7-20,96.4,81.7,73.7,75.0,71.2,68.0,92,73,41,29.94,29.79,7,2,14,0.00
2013-7-21,93.8,81.9,73.9,76.0,73.4,71.0,94,77,50,29.90,29.82,10,3,18,0.00
2013-7-22,96.3,84.7,76.7,76.0,73.2,69.0,92,71,42,29.93,29.82,13,5,21,0.01
2013-7-23,96.8,84.6,76.6,75.0,71.4,66.0,88,67,38,29.95,29.80,13,5,18,0.00
2013-7-24,95.2,85.2,76.0,74.0,72.2,68.0,88,67,42,29.94,29.81,8,3,16,0.00
2013-7-25,99.4,86.2,75.3,74.0,70.5,64.0,91,63,34,29.96,29.87,8,2,15,0.00
2013-7-26,97.9,86.1,75.5,76.0,72.0,68.0,92,66,39,29.96,29.79,11,4,20,0.25
2013-7-27,89.0,79.1,72.9,76.0,72.8,68.0,97,82,59,29.93,29.83,7,1,12,0.25
2013-7-28,96.8,84.2,73.8,76.0,71.6,69.0,87,68,44,29.89,29.77,7,2,17,0.00
2013-7-29,98.0,84.8,77.2,75.0,70.5,63.0,86,66,32,29.96,29.86,14,6,20,0.00
2013-7-30,98.7,85.9,75.8,74.0,70.3,62.0,90,63,31,30.03,29.89,11,5,21,0.00
2013-7-31,102.1,86.8,74.5,73.0,68.1,62.0,91,59,27,30.03,29.86,13,2,16,0.00